sensor_id;sensor_type;location;lat;lon;timestamp;temperature;humidity
52799;DHT22;38667;42.872;74.622;2023-02-21T00:01:43;4.80;55.50
52799;DHT22;38667;42.872;74.622;2023-02-21T00:04:10;4.80;56.80
52799;DHT22;38667;42.872;74.622;2023-02-21T00:06:36;4.90;56.10
52799;DHT22;38667;42.872;74.622;2023-02-21T00:09:02;5.00;56.10
52799;DHT22;38667;42.872;74.622;2023-02-21T00:11:30;5.00;56.70
52799;DHT22;38667;42.872;74.622;2023-02-21T00:13:56;4.90;56.10
52799;DHT22;38667;42.872;74.622;2023-02-21T00:16:23;4.80;57.00
52799;DHT22;38667;42.872;74.622;2023-02-21T00:18:49;4.90;56.10
52799;DHT22;38667;42.872;74.622;2023-02-21T00:21:15;4.90;58.10
52799;DHT22;38667;42.872;74.622;2023-02-21T00:23:42;4.80;56.90
52799;DHT22;38667;42.872;74.622;2023-02-21T00:26:08;4.80;58.00
52799;DHT22;38667;42.872;74.622;2023-02-21T00:28:36;4.90;56.30
52799;DHT22;38667;42.872;74.622;2023-02-21T00:31:02;4.90;57.30
52799;DHT22;38667;42.872;74.622;2023-02-21T00:33:29;4.90;55.90
52799;DHT22;38667;42.872;74.622;2023-02-21T00:35:55;4.90;57.30
52799;DHT22;38667;42.872;74.622;2023-02-21T00:38:21;4.90;56.10
52799;DHT22;38667;42.872;74.622;2023-02-21T00:40:48;5.20;55.50
52799;DHT22;38667;42.872;74.622;2023-02-21T00:43:14;5.40;52.80
52799;DHT22;38667;42.872;74.622;2023-02-21T00:45:42;5.40;55.40
52799;DHT22;38667;42.872;74.622;2023-02-21T00:48:09;5.30;54.50
52799;DHT22;38667;42.872;74.622;2023-02-21T00:50:35;5.30;57.00
52799;DHT22;38667;42.872;74.622;2023-02-21T00:53:02;5.30;56.20
52799;DHT22;38667;42.872;74.622;2023-02-21T00:55:28;5.30;56.30
52799;DHT22;38667;42.872;74.622;2023-02-21T00:57:54;5.30;56.40
52799;DHT22;38667;42.872;74.622;2023-02-21T01:00:22;5.40;55.70
52799;DHT22;38667;42.872;74.622;2023-02-21T01:02:50;5.40;52.40
52799;DHT22;38667;42.872;74.622;2023-02-21T01:05:16;5.50;53.80
52799;DHT22;38667;42.872;74.622;2023-02-21T01:07:43;5.70;50.10
52799;DHT22;38667;42.872;74.622;2023-02-21T01:10:09;5.90;48.30
52799;DHT22;38667;42.872;74.622;2023-02-21T01:12:35;6.10;48.00
52799;DHT22;38667;42.872;74.622;2023-02-21T01:15:02;6.10;47.60
52799;DHT22;38667;42.872;74.622;2023-02-21T01:17:28;6.20;48.00
52799;DHT22;38667;42.872;74.622;2023-02-21T01:19:56;6.20;48.80
52799;DHT22;38667;42.872;74.622;2023-02-21T01:22:25;6.10;49.90
52799;DHT22;38667;42.872;74.622;2023-02-21T01:24:51;6.10;50.40
52799;DHT22;38667;42.872;74.622;2023-02-21T01:27:17;6.10;52.20
52799;DHT22;38667;42.872;74.622;2023-02-21T01:29:44;5.90;51.90
52799;DHT22;38667;42.872;74.622;2023-02-21T01:32:10;5.90;51.20
52799;DHT22;38667;42.872;74.622;2023-02-21T01:34:36;5.90;52.30
52799;DHT22;38667;42.872;74.622;2023-02-21T01:37:04;5.80;52.00
52799;DHT22;38667;42.872;74.622;2023-02-21T01:39:30;5.80;52.60
52799;DHT22;38667;42.872;74.622;2023-02-21T01:41:57;5.90;51.70
52799;DHT22;38667;42.872;74.622;2023-02-21T01:44:34;6.00;50.80
52799;DHT22;38667;42.872;74.622;2023-02-21T01:47:01;6.10;50.20
52799;DHT22;38667;42.872;74.622;2023-02-21T01:49:28;6.10;51.70
52799;DHT22;38667;42.872;74.622;2023-02-21T01:51:55;6.10;49.40
52799;DHT22;38667;42.872;74.622;2023-02-21T01:54:26;6.20;45.50
52799;DHT22;38667;42.872;74.622;2023-02-21T01:56:54;6.40;45.10
52799;DHT22;38667;42.872;74.622;2023-02-21T01:59:22;6.60;45.40
52799;DHT22;38667;42.872;74.622;2023-02-21T02:01:52;6.70;46.20
52799;DHT22;38667;42.872;74.622;2023-02-21T02:04:19;6.60;49.10
52799;DHT22;38667;42.872;74.622;2023-02-21T02:06:45;6.50;49.80
52799;DHT22;38667;42.872;74.622;2023-02-21T02:09:16;6.40;49.90
52799;DHT22;38667;42.872;74.622;2023-02-21T02:12:03;6.30;50.20
52799;DHT22;38667;42.872;74.622;2023-02-21T02:15:01;6.30;50.20
52799;DHT22;38667;42.872;74.622;2023-02-21T02:17:40;6.40;48.50
52799;DHT22;38667;42.872;74.622;2023-02-21T02:20:34;6.50;48.50
52799;DHT22;38667;42.872;74.622;2023-02-21T02:29:26;6.40;51.10
52799;DHT22;38667;42.872;74.622;2023-02-21T02:32:28;6.30;51.70
52799;DHT22;38667;42.872;74.622;2023-02-21T02:35:04;6.50;44.50
52799;DHT22;38667;42.872;74.622;2023-02-21T02:37:37;6.80;44.70
52799;DHT22;38667;42.872;74.622;2023-02-21T02:40:09;6.90;46.20
52799;DHT22;38667;42.872;74.622;2023-02-21T02:42:49;6.90;47.30
52799;DHT22;38667;42.872;74.622;2023-02-21T02:45:21;6.80;47.80
52799;DHT22;38667;42.872;74.622;2023-02-21T02:47:53;6.80;47.30
52799;DHT22;38667;42.872;74.622;2023-02-21T02:50:22;6.70;48.90
52799;DHT22;38667;42.872;74.622;2023-02-21T02:52:51;6.70;47.60
52799;DHT22;38667;42.872;74.622;2023-02-21T02:55:27;6.70;48.20
52799;DHT22;38667;42.872;74.622;2023-02-21T02:57:55;6.80;45.00
52799;DHT22;38667;42.872;74.622;2023-02-21T03:00:22;7.00;44.30
52799;DHT22;38667;42.872;74.622;2023-02-21T03:02:58;7.20;43.10
52799;DHT22;38667;42.872;74.622;2023-02-21T03:05:49;7.30;42.30
52799;DHT22;38667;42.872;74.622;2023-02-21T03:08:23;7.40;41.60
52799;DHT22;38667;42.872;74.622;2023-02-21T03:10:56;7.50;42.30
52799;DHT22;38667;42.872;74.622;2023-02-21T03:13:31;7.70;42.20
52799;DHT22;38667;42.872;74.622;2023-02-21T03:16:04;7.80;42.00
52799;DHT22;38667;42.872;74.622;2023-02-21T03:18:36;7.90;43.00
52799;DHT22;38667;42.872;74.622;2023-02-21T03:21:10;7.90;44.80
52799;DHT22;38667;42.872;74.622;2023-02-21T03:23:39;7.90;45.20
52799;DHT22;38667;42.872;74.622;2023-02-21T03:26:08;7.90;45.70
52799;DHT22;38667;42.872;74.622;2023-02-21T03:28:36;7.90;46.00
52799;DHT22;38667;42.872;74.622;2023-02-21T03:31:04;8.00;44.50
52799;DHT22;38667;42.872;74.622;2023-02-21T03:33:32;8.00;45.50
52799;DHT22;38667;42.872;74.622;2023-02-21T03:36:00;8.10;44.80
52799;DHT22;38667;42.872;74.622;2023-02-21T03:38:30;8.20;44.50
52799;DHT22;38667;42.872;74.622;2023-02-21T03:40:56;8.30;45.50
52799;DHT22;38667;42.872;74.622;2023-02-21T03:43:23;8.30;43.50
52799;DHT22;38667;42.872;74.622;2023-02-21T03:45:49;8.40;44.00
52799;DHT22;38667;42.872;74.622;2023-02-21T03:48:15;8.50;43.00
52799;DHT22;38667;42.872;74.622;2023-02-21T03:50:42;8.60;44.10
52799;DHT22;38667;42.872;74.622;2023-02-21T03:53:09;8.80;41.70
52799;DHT22;38667;42.872;74.622;2023-02-21T03:55:37;8.90;39.90
52799;DHT22;38667;42.872;74.622;2023-02-21T03:58:03;9.00;41.00
52799;DHT22;38667;42.872;74.622;2023-02-21T04:00:29;9.10;40.00
52799;DHT22;38667;42.872;74.622;2023-02-21T04:02:56;9.10;38.70
52799;DHT22;38667;42.872;74.622;2023-02-21T04:05:22;9.20;37.60
52799;DHT22;38667;42.872;74.622;2023-02-21T04:07:48;9.30;38.10
52799;DHT22;38667;42.872;74.622;2023-02-21T04:10:15;9.30;38.70
52799;DHT22;38667;42.872;74.622;2023-02-21T04:12:43;9.30;37.70
52799;DHT22;38667;42.872;74.622;2023-02-21T04:15:10;9.40;37.90
52799;DHT22;38667;42.872;74.622;2023-02-21T04:17:36;9.40;36.00
52799;DHT22;38667;42.872;74.622;2023-02-21T04:20:03;9.60;36.40
52799;DHT22;38667;42.872;74.622;2023-02-21T04:22:30;9.70;35.00
52799;DHT22;38667;42.872;74.622;2023-02-21T04:24:56;9.70;34.40
52799;DHT22;38667;42.872;74.622;2023-02-21T04:27:22;9.90;34.20
52799;DHT22;38667;42.872;74.622;2023-02-21T04:29:50;10.00;34.70
52799;DHT22;38667;42.872;74.622;2023-02-21T04:32:16;10.10;34.20
52799;DHT22;38667;42.872;74.622;2023-02-21T04:34:43;10.20;35.20
52799;DHT22;38667;42.872;74.622;2023-02-21T04:37:09;10.20;34.80
52799;DHT22;38667;42.872;74.622;2023-02-21T04:39:35;10.30;34.90
52799;DHT22;38667;42.872;74.622;2023-02-21T04:42:02;10.30;34.00
52799;DHT22;38667;42.872;74.622;2023-02-21T04:44:28;10.30;33.50
52799;DHT22;38667;42.872;74.622;2023-02-21T04:46:56;10.30;32.80
52799;DHT22;38667;42.872;74.622;2023-02-21T04:49:22;10.30;33.20
52799;DHT22;38667;42.872;74.622;2023-02-21T04:51:49;10.20;33.50
52799;DHT22;38667;42.872;74.622;2023-02-21T04:54:15;10.20;34.10
52799;DHT22;38667;42.872;74.622;2023-02-21T04:56:41;10.10;34.40
52799;DHT22;38667;42.872;74.622;2023-02-21T04:59:08;10.10;34.60
52799;DHT22;38667;42.872;74.622;2023-02-21T05:01:34;10.10;34.60
52799;DHT22;38667;42.872;74.622;2023-02-21T05:04:02;10.20;35.40
52799;DHT22;38667;42.872;74.622;2023-02-21T05:06:29;10.30;34.40
52799;DHT22;38667;42.872;74.622;2023-02-21T05:08:57;10.30;34.20
52799;DHT22;38667;42.872;74.622;2023-02-21T05:11:24;10.40;34.70
52799;DHT22;38667;42.872;74.622;2023-02-21T05:13:51;10.50;35.70
52799;DHT22;38667;42.872;74.622;2023-02-21T05:16:18;10.70;35.40
52799;DHT22;38667;42.872;74.622;2023-02-21T05:18:46;10.90;35.00
52799;DHT22;38667;42.872;74.622;2023-02-21T05:21:14;11.00;35.10
52799;DHT22;38667;42.872;74.622;2023-02-21T05:23:41;11.00;34.40
52799;DHT22;38667;42.872;74.622;2023-02-21T05:26:10;11.20;34.70
52799;DHT22;38667;42.872;74.622;2023-02-21T05:28:37;11.30;35.20
52799;DHT22;38667;42.872;74.622;2023-02-21T05:31:05;11.40;36.60
52799;DHT22;38667;42.872;74.622;2023-02-21T05:33:31;11.40;36.30
52799;DHT22;38667;42.872;74.622;2023-02-21T05:35:58;11.40;36.80
52799;DHT22;38667;42.872;74.622;2023-02-21T05:38:26;11.40;36.60
52799;DHT22;38667;42.872;74.622;2023-02-21T05:40:53;11.50;35.40
52799;DHT22;38667;42.872;74.622;2023-02-21T05:43:19;11.50;36.10
52799;DHT22;38667;42.872;74.622;2023-02-21T05:45:46;11.50;38.30
52799;DHT22;38667;42.872;74.622;2023-02-21T05:48:12;11.50;38.40
52799;DHT22;38667;42.872;74.622;2023-02-21T05:50:39;11.50;38.00
52799;DHT22;38667;42.872;74.622;2023-02-21T05:53:05;11.60;38.80
52799;DHT22;38667;42.872;74.622;2023-02-21T05:55:33;11.60;38.20
52799;DHT22;38667;42.872;74.622;2023-02-21T05:57:59;11.70;38.90
52799;DHT22;38667;42.872;74.622;2023-02-21T06:00:27;11.80;38.40
52799;DHT22;38667;42.872;74.622;2023-02-21T06:02:54;11.90;38.40
52799;DHT22;38667;42.872;74.622;2023-02-21T06:05:21;11.90;37.60
52799;DHT22;38667;42.872;74.622;2023-02-21T06:07:48;11.80;38.60
52799;DHT22;38667;42.872;74.622;2023-02-21T06:10:15;11.70;37.00
52799;DHT22;38667;42.872;74.622;2023-02-21T06:12:43;11.70;36.90
52799;DHT22;38667;42.872;74.622;2023-02-21T06:15:10;11.80;36.80
52799;DHT22;38667;42.872;74.622;2023-02-21T06:17:37;11.80;37.10
52799;DHT22;38667;42.872;74.622;2023-02-21T06:20:05;12.10;37.50
52799;DHT22;38667;42.872;74.622;2023-02-21T06:22:31;12.30;35.30
52799;DHT22;38667;42.872;74.622;2023-02-21T06:24:58;12.60;35.10
52799;DHT22;38667;42.872;74.622;2023-02-21T06:27:24;13.60;34.00
52799;DHT22;38667;42.872;74.622;2023-02-21T06:29:52;14.80;32.90
52799;DHT22;38667;42.872;74.622;2023-02-21T06:32:18;15.60;30.50
52799;DHT22;38667;42.872;74.622;2023-02-21T06:34:45;15.90;30.40
52799;DHT22;38667;42.872;74.622;2023-02-21T06:37:11;15.80;29.90
52799;DHT22;38667;42.872;74.622;2023-02-21T06:39:38;15.70;28.30
52799;DHT22;38667;42.872;74.622;2023-02-21T06:42:04;15.20;29.50
52799;DHT22;38667;42.872;74.622;2023-02-21T06:44:30;15.00;30.20
52799;DHT22;38667;42.872;74.622;2023-02-21T06:46:58;15.00;30.00
52799;DHT22;38667;42.872;74.622;2023-02-21T06:49:24;15.00;29.30
52799;DHT22;38667;42.872;74.622;2023-02-21T06:51:51;15.10;29.60
52799;DHT22;38667;42.872;74.622;2023-02-21T06:54:17;15.20;29.40
52799;DHT22;38667;42.872;74.622;2023-02-21T06:56:43;15.20;28.50
52799;DHT22;38667;42.872;74.622;2023-02-21T06:59:10;15.00;28.40
52799;DHT22;38667;42.872;74.622;2023-02-21T07:01:36;14.90;29.80
52799;DHT22;38667;42.872;74.622;2023-02-21T07:04:04;14.90;28.50
52799;DHT22;38667;42.872;74.622;2023-02-21T07:06:30;15.00;28.70
52799;DHT22;38667;42.872;74.622;2023-02-21T07:08:56;15.10;27.70
52799;DHT22;38667;42.872;74.622;2023-02-21T07:11:25;15.20;27.80
52799;DHT22;38667;42.872;74.622;2023-02-21T07:13:53;15.30;25.80
52799;DHT22;38667;42.872;74.622;2023-02-21T07:16:19;15.10;25.70
52799;DHT22;38667;42.872;74.622;2023-02-21T07:18:46;15.00;27.20
52799;DHT22;38667;42.872;74.622;2023-02-21T07:21:14;14.90;27.40
52799;DHT22;38667;42.872;74.622;2023-02-21T07:23:42;15.20;26.30
52799;DHT22;38667;42.872;74.622;2023-02-21T07:26:08;16.00;25.10
52799;DHT22;38667;42.872;74.622;2023-02-21T07:28:35;16.60;23.60
52799;DHT22;38667;42.872;74.622;2023-02-21T07:31:01;16.30;22.50
52799;DHT22;38667;42.872;74.622;2023-02-21T07:33:27;16.30;22.30
52799;DHT22;38667;42.872;74.622;2023-02-21T07:35:54;16.50;24.10
52799;DHT22;38667;42.872;74.622;2023-02-21T07:38:23;16.70;23.20
52799;DHT22;38667;42.872;74.622;2023-02-21T07:40:49;17.30;21.80
52799;DHT22;38667;42.872;74.622;2023-02-21T07:43:16;17.20;23.70
52799;DHT22;38667;42.872;74.622;2023-02-21T07:45:43;17.10;27.60
52799;DHT22;38667;42.872;74.622;2023-02-21T07:48:09;16.90;27.90
52799;DHT22;38667;42.872;74.622;2023-02-21T07:50:35;16.70;27.70
52799;DHT22;38667;42.872;74.622;2023-02-21T07:53:02;16.70;26.80
52799;DHT22;38667;42.872;74.622;2023-02-21T07:55:29;16.50;27.80
52799;DHT22;38667;42.872;74.622;2023-02-21T07:57:56;16.40;29.20
52799;DHT22;38667;42.872;74.622;2023-02-21T08:00:22;16.60;30.60
52799;DHT22;38667;42.872;74.622;2023-02-21T08:02:48;17.10;29.30
52799;DHT22;38667;42.872;74.622;2023-02-21T08:05:15;17.60;28.00
52799;DHT22;38667;42.872;74.622;2023-02-21T08:07:42;18.00;27.00
52799;DHT22;38667;42.872;74.622;2023-02-21T08:10:09;17.80;27.80
52799;DHT22;38667;42.872;74.622;2023-02-21T08:12:37;17.80;28.50
52799;DHT22;38667;42.872;74.622;2023-02-21T08:15:03;17.50;27.60
52799;DHT22;38667;42.872;74.622;2023-02-21T08:17:30;17.40;28.50
52799;DHT22;38667;42.872;74.622;2023-02-21T08:19:56;17.80;28.60
52799;DHT22;38667;42.872;74.622;2023-02-21T08:22:22;18.20;27.70
52799;DHT22;38667;42.872;74.622;2023-02-21T08:24:49;18.40;28.20
52799;DHT22;38667;42.872;74.622;2023-02-21T08:27:15;18.60;27.60
52799;DHT22;38667;42.872;74.622;2023-02-21T08:29:43;18.50;28.00
52799;DHT22;38667;42.872;74.622;2023-02-21T08:32:10;18.80;27.10
52799;DHT22;38667;42.872;74.622;2023-02-21T08:34:36;18.90;27.40
52799;DHT22;38667;42.872;74.622;2023-02-21T08:37:03;18.80;27.20
52799;DHT22;38667;42.872;74.622;2023-02-21T08:39:29;18.60;27.70
52799;DHT22;38667;42.872;74.622;2023-02-21T08:41:55;18.90;26.80
52799;DHT22;38667;42.872;74.622;2023-02-21T08:44:22;19.30;26.80
52799;DHT22;38667;42.872;74.622;2023-02-21T08:46:49;19.50;25.90
52799;DHT22;38667;42.872;74.622;2023-02-21T08:49:16;19.70;25.50
52799;DHT22;38667;42.872;74.622;2023-02-21T08:51:42;19.40;26.20
52799;DHT22;38667;42.872;74.622;2023-02-21T08:54:09;19.20;26.00
52799;DHT22;38667;42.872;74.622;2023-02-21T08:56:35;19.50;25.80
52799;DHT22;38667;42.872;74.622;2023-02-21T08:59:01;19.20;26.50
52799;DHT22;38667;42.872;74.622;2023-02-21T09:01:31;18.40;27.40
52799;DHT22;38667;42.872;74.622;2023-02-21T09:03:59;18.00;27.40
52799;DHT22;38667;42.872;74.622;2023-02-21T09:06:25;17.50;27.50
52799;DHT22;38667;42.872;74.622;2023-02-21T09:08:52;17.00;28.90
52799;DHT22;38667;42.872;74.622;2023-02-21T09:11:18;16.80;29.00
52799;DHT22;38667;42.872;74.622;2023-02-21T09:13:44;16.80;28.60
52799;DHT22;38667;42.872;74.622;2023-02-21T09:16:11;17.40;27.50
52799;DHT22;38667;42.872;74.622;2023-02-21T09:18:37;18.00;26.40
52799;DHT22;38667;42.872;74.622;2023-02-21T09:21:05;18.40;25.30
52799;DHT22;38667;42.872;74.622;2023-02-21T09:23:32;18.70;24.30
52799;DHT22;38667;42.872;74.622;2023-02-21T09:25:58;18.50;24.70
52799;DHT22;38667;42.872;74.622;2023-02-21T09:28:24;18.60;24.40
52799;DHT22;38667;42.872;74.622;2023-02-21T09:30:51;18.70;24.10
52799;DHT22;38667;42.872;74.622;2023-02-21T09:33:17;18.20;24.50
52799;DHT22;38667;42.872;74.622;2023-02-21T09:35:43;17.90;24.80
52799;DHT22;38667;42.872;74.622;2023-02-21T09:38:11;17.90;24.20
52799;DHT22;38667;42.872;74.622;2023-02-21T09:40:42;17.60;24.10
52799;DHT22;38667;42.872;74.622;2023-02-21T09:43:13;17.30;25.10
52799;DHT22;38667;42.872;74.622;2023-02-21T09:45:41;16.80;26.90
52799;DHT22;38667;42.872;74.622;2023-02-21T09:48:12;16.90;26.10
52799;DHT22;38667;42.872;74.622;2023-02-21T09:50:42;17.30;25.40
52799;DHT22;38667;42.872;74.622;2023-02-21T09:53:15;17.80;25.70
52799;DHT22;38667;42.872;74.622;2023-02-21T09:55:42;18.00;25.20
52799;DHT22;38667;42.872;74.622;2023-02-21T09:58:11;18.10;25.20
52799;DHT22;38667;42.872;74.622;2023-02-21T10:00:38;18.40;25.00
52799;DHT22;38667;42.872;74.622;2023-02-21T10:03:15;17.70;25.60
52799;DHT22;38667;42.872;74.622;2023-02-21T10:05:46;17.30;26.00
52799;DHT22;38667;42.872;74.622;2023-02-21T10:08:21;16.90;26.90
52799;DHT22;38667;42.872;74.622;2023-02-21T10:10:53;16.90;26.80
52799;DHT22;38667;42.872;74.622;2023-02-21T10:13:35;16.80;26.20
52799;DHT22;38667;42.872;74.622;2023-02-21T10:16:05;16.60;27.00
52799;DHT22;38667;42.872;74.622;2023-02-21T10:18:38;16.50;26.90
52799;DHT22;38667;42.872;74.622;2023-02-21T10:21:13;17.60;25.30
52799;DHT22;38667;42.872;74.622;2023-02-21T10:23:43;18.20;23.90
52799;DHT22;38667;42.872;74.622;2023-02-21T10:26:12;18.00;23.70
52799;DHT22;38667;42.872;74.622;2023-02-21T10:28:39;18.00;24.20
52799;DHT22;38667;42.872;74.622;2023-02-21T10:31:10;17.50;26.00
52799;DHT22;38667;42.872;74.622;2023-02-21T10:33:37;17.70;24.20
52799;DHT22;38667;42.872;74.622;2023-02-21T10:36:14;18.10;24.40
52799;DHT22;38667;42.872;74.622;2023-02-21T10:38:52;18.40;23.10
52799;DHT22;38667;42.872;74.622;2023-02-21T10:41:20;18.40;23.20
52799;DHT22;38667;42.872;74.622;2023-02-21T10:43:49;18.20;23.30
52799;DHT22;38667;42.872;74.622;2023-02-21T10:46:22;17.90;24.80
52799;DHT22;38667;42.872;74.622;2023-02-21T10:48:52;18.00;30.10
52799;DHT22;38667;42.872;74.622;2023-02-21T10:51:29;18.00;32.20
52799;DHT22;38667;42.872;74.622;2023-02-21T10:54:16;17.60;33.60
52799;DHT22;38667;42.872;74.622;2023-02-21T10:56:43;17.40;34.10
52799;DHT22;38667;42.872;74.622;2023-02-21T10:59:19;16.90;33.70
52799;DHT22;38667;42.872;74.622;2023-02-21T11:01:46;17.00;34.40
52799;DHT22;38667;42.872;74.622;2023-02-21T11:04:25;17.50;33.50
52799;DHT22;38667;42.872;74.622;2023-02-21T11:06:54;17.80;33.00
52799;DHT22;38667;42.872;74.622;2023-02-21T11:09:32;17.60;33.10
52799;DHT22;38667;42.872;74.622;2023-02-21T11:12:02;17.50;33.10
52799;DHT22;38667;42.872;74.622;2023-02-21T11:14:29;17.10;33.40
52799;DHT22;38667;42.872;74.622;2023-02-21T11:17:15;17.00;34.30
52799;DHT22;38667;42.872;74.622;2023-02-21T11:19:47;17.10;33.50
52799;DHT22;38667;42.872;74.622;2023-02-21T11:22:15;17.10;33.00
52799;DHT22;38667;42.872;74.622;2023-02-21T11:24:50;16.80;33.80
52799;DHT22;38667;42.872;74.622;2023-02-21T11:27:17;16.80;33.80
52799;DHT22;38667;42.872;74.622;2023-02-21T11:29:46;16.60;34.50
52799;DHT22;38667;42.872;74.622;2023-02-21T11:32:20;16.40;35.00
52799;DHT22;38667;42.872;74.622;2023-02-21T11:34:49;16.60;35.00
52799;DHT22;38667;42.872;74.622;2023-02-21T11:37:15;17.10;34.70
52799;DHT22;38667;42.872;74.622;2023-02-21T11:39:50;17.60;34.60
52799;DHT22;38667;42.872;74.622;2023-02-21T11:42:25;17.80;34.40
52799;DHT22;38667;42.872;74.622;2023-02-21T11:45:13;17.80;33.90
52799;DHT22;38667;42.872;74.622;2023-02-21T11:47:47;17.40;34.50
52799;DHT22;38667;42.872;74.622;2023-02-21T11:50:23;16.70;35.90
52799;DHT22;38667;42.872;74.622;2023-02-21T11:52:54;16.10;36.80
52799;DHT22;38667;42.872;74.622;2023-02-21T11:55:24;15.90;37.00
52799;DHT22;38667;42.872;74.622;2023-02-21T12:00:42;14.80;38.90
52799;DHT22;38667;42.872;74.622;2023-02-21T12:03:27;14.40;39.80
52799;DHT22;38667;42.872;74.622;2023-02-21T12:06:00;14.10;40.40
52799;DHT22;38667;42.872;74.622;2023-02-21T12:08:46;13.80;40.80
52799;DHT22;38667;42.872;74.622;2023-02-21T12:11:25;13.60;41.30
52799;DHT22;38667;42.872;74.622;2023-02-21T12:14:03;13.50;42.10
52799;DHT22;38667;42.872;74.622;2023-02-21T12:16:43;13.30;41.90
52799;DHT22;38667;42.872;74.622;2023-02-21T12:19:26;13.20;43.50
52799;DHT22;38667;42.872;74.622;2023-02-21T12:22:02;13.00;43.20
52799;DHT22;38667;42.872;74.622;2023-02-21T12:24:48;12.90;43.40
52799;DHT22;38667;42.872;74.622;2023-02-21T12:27:22;12.70;43.90
52799;DHT22;38667;42.872;74.622;2023-02-21T12:32:57;12.40;44.10
52799;DHT22;38667;42.872;74.622;2023-02-21T12:35:53;12.30;44.20
52799;DHT22;38667;42.872;74.622;2023-02-21T12:38:29;12.20;45.10
52799;DHT22;38667;42.872;74.622;2023-02-21T12:41:03;12.10;45.30
52799;DHT22;38667;42.872;74.622;2023-02-21T12:43:50;12.00;45.50
52799;DHT22;38667;42.872;74.622;2023-02-21T12:46:24;12.00;44.80
52799;DHT22;38667;42.872;74.622;2023-02-21T12:48:57;12.00;45.20
52799;DHT22;38667;42.872;74.622;2023-02-21T12:51:27;11.90;45.40
52799;DHT22;38667;42.872;74.622;2023-02-21T12:54:00;11.90;45.00
52799;DHT22;38667;42.872;74.622;2023-02-21T12:56:31;11.80;45.90
52799;DHT22;38667;42.872;74.622;2023-02-21T12:59:05;11.80;46.10
52799;DHT22;38667;42.872;74.622;2023-02-21T13:01:36;11.80;45.40
52799;DHT22;38667;42.872;74.622;2023-02-21T13:04:14;11.80;45.50
52799;DHT22;38667;42.872;74.622;2023-02-21T13:06:46;11.90;45.40
52799;DHT22;38667;42.872;74.622;2023-02-21T13:09:20;11.80;43.20
52799;DHT22;38667;42.872;74.622;2023-02-21T13:11:55;11.80;42.10
52799;DHT22;38667;42.872;74.622;2023-02-21T13:14:27;11.70;42.70
52799;DHT22;38667;42.872;74.622;2023-02-21T13:16:56;11.50;44.10
52799;DHT22;38667;42.872;74.622;2023-02-21T13:19:23;11.30;43.90
52799;DHT22;38667;42.872;74.622;2023-02-21T13:22:01;11.30;44.30
52799;DHT22;38667;42.872;74.622;2023-02-21T13:24:44;11.10;44.80
52799;DHT22;38667;42.872;74.622;2023-02-21T13:27:31;11.00;43.80
52799;DHT22;38667;42.872;74.622;2023-02-21T13:30:12;11.00;44.10
52799;DHT22;38667;42.872;74.622;2023-02-21T13:32:39;11.00;42.90
52799;DHT22;38667;42.872;74.622;2023-02-21T13:35:19;11.00;43.90
52799;DHT22;38667;42.872;74.622;2023-02-21T13:37:47;10.80;44.10
52799;DHT22;38667;42.872;74.622;2023-02-21T13:40:20;10.70;44.80
52799;DHT22;38667;42.872;74.622;2023-02-21T13:42:47;10.70;44.60
52799;DHT22;38667;42.872;74.622;2023-02-21T13:45:26;10.60;45.70
52799;DHT22;38667;42.872;74.622;2023-02-21T13:50:56;10.30;44.20
52799;DHT22;38667;42.872;74.622;2023-02-21T13:53:25;10.30;43.70
52799;DHT22;38667;42.872;74.622;2023-02-21T13:56:17;10.30;43.10
52799;DHT22;38667;42.872;74.622;2023-02-21T13:58:44;10.30;44.10
52799;DHT22;38667;42.872;74.622;2023-02-21T14:01:39;10.40;43.90
52799;DHT22;38667;42.872;74.622;2023-02-21T14:07:04;10.30;44.80
52799;DHT22;38667;42.872;74.622;2023-02-21T14:09:34;10.20;44.70
52799;DHT22;38667;42.872;74.622;2023-02-21T14:12:03;10.10;44.20
52799;DHT22;38667;42.872;74.622;2023-02-21T14:14:31;10.00;43.90
52799;DHT22;38667;42.872;74.622;2023-02-21T14:17:03;10.00;44.50
52799;DHT22;38667;42.872;74.622;2023-02-21T14:19:35;9.90;45.10
52799;DHT22;38667;42.872;74.622;2023-02-21T14:22:04;9.80;45.20
52799;DHT22;38667;42.872;74.622;2023-02-21T14:24:36;9.80;44.80
52799;DHT22;38667;42.872;74.622;2023-02-21T14:27:04;9.70;45.60
52799;DHT22;38667;42.872;74.622;2023-02-21T14:30:15;9.60;46.10
52799;DHT22;38667;42.872;74.622;2023-02-21T14:32:50;9.50;45.00
52799;DHT22;38667;42.872;74.622;2023-02-21T14:35:25;9.60;45.20
52799;DHT22;38667;42.872;74.622;2023-02-21T14:37:58;9.50;44.20
52799;DHT22;38667;42.872;74.622;2023-02-21T14:40:32;9.50;44.60
52799;DHT22;38667;42.872;74.622;2023-02-21T14:43:14;9.40;44.50
52799;DHT22;38667;42.872;74.622;2023-02-21T14:45:56;9.40;45.90
52799;DHT22;38667;42.872;74.622;2023-02-21T14:51:54;9.30;44.00
52799;DHT22;38667;42.872;74.622;2023-02-21T14:54:50;9.30;43.90
52799;DHT22;38667;42.872;74.622;2023-02-21T14:57:37;9.20;43.20
52799;DHT22;38667;42.872;74.622;2023-02-21T15:00:17;9.10;44.20
52799;DHT22;38667;42.872;74.622;2023-02-21T15:02:51;9.00;43.20
52799;DHT22;38667;42.872;74.622;2023-02-21T15:05:21;9.00;43.20
52799;DHT22;38667;42.872;74.622;2023-02-21T15:07:59;9.00;44.00
52799;DHT22;38667;42.872;74.622;2023-02-21T15:10:28;9.00;43.20
52799;DHT22;38667;42.872;74.622;2023-02-21T15:12:56;8.90;43.50
52799;DHT22;38667;42.872;74.622;2023-02-21T15:15:25;8.90;45.50
52799;DHT22;38667;42.872;74.622;2023-02-21T15:17:58;8.80;43.90
52799;DHT22;38667;42.872;74.622;2023-02-21T15:20:26;8.80;43.20
52799;DHT22;38667;42.872;74.622;2023-02-21T15:22:59;8.70;43.40
52799;DHT22;38667;42.872;74.622;2023-02-21T15:25:26;8.70;44.30
52799;DHT22;38667;42.872;74.622;2023-02-21T15:27:58;8.50;44.70
52799;DHT22;38667;42.872;74.622;2023-02-21T15:30:27;8.50;44.30
52799;DHT22;38667;42.872;74.622;2023-02-21T15:32:57;8.50;44.20
52799;DHT22;38667;42.872;74.622;2023-02-21T15:35:28;8.50;44.80
52799;DHT22;38667;42.872;74.622;2023-02-21T15:38:00;8.50;43.80
52799;DHT22;38667;42.872;74.622;2023-02-21T15:40:28;8.40;43.80
52799;DHT22;38667;42.872;74.622;2023-02-21T15:42:54;8.40;43.50
52799;DHT22;38667;42.872;74.622;2023-02-21T15:45:24;8.40;43.80
52799;DHT22;38667;42.872;74.622;2023-02-21T15:47:51;8.30;43.10
52799;DHT22;38667;42.872;74.622;2023-02-21T15:50:27;8.30;43.40
52799;DHT22;38667;42.872;74.622;2023-02-21T15:52:54;8.30;43.50
52799;DHT22;38667;42.872;74.622;2023-02-21T15:55:30;8.30;42.80
52799;DHT22;38667;42.872;74.622;2023-02-21T15:58:00;8.30;43.50
52799;DHT22;38667;42.872;74.622;2023-02-21T16:00:29;8.20;44.50
52799;DHT22;38667;42.872;74.622;2023-02-21T16:03:26;8.10;43.00